Time;durP1;ratioP1;P1;durP2;ratioP2;P2;SDS_P1;SDS_P2;PMS_P1;PMS_P2;Temp;Humidity;BMP_temperature;BMP_pressure;BME280_temperature;BME280_humidity;BME280_pressure;Samples;Min_cycle;Max_cycle;Signal;HPM_P1;HPM_P2
2022/03/04 00:01:04;;;;;;;10.43;8.77;;;15.80;38.20;;;;;;5056362;28;20021;-38
2022/03/04 00:03:30;;;;;;;10.00;8.38;;;15.80;38.10;;;;;;5057362;28;20036;-38
2022/03/04 00:05:56;;;;;;;10.07;8.85;;;15.90;38.10;;;;;;5058164;28;20009;-40
2022/03/04 00:08:22;;;;;;;11.13;8.52;;;15.80;38.10;;;;;;5058163;28;20028;-39
2022/03/04 00:10:49;;;;;;;10.55;8.48;;;15.80;38.10;;;;;;5057829;28;20032;-37
2022/03/04 00:13:15;;;;;;;10.38;8.07;;;15.80;38.10;;;;;;5056001;28;20103;-38
2022/03/04 00:15:42;;;;;;;9.65;8.27;;;15.80;38.10;;;;;;5056651;28;20021;-38
2022/03/04 00:18:08;;;;;;;10.25;8.40;;;15.80;38.00;;;;;;5056078;28;20063;-37
2022/03/04 00:20:34;;;;;;;10.68;8.80;;;15.80;38.10;;;;;;5055136;28;20021;-39
2022/03/04 00:23:00;;;;;;;11.00;8.48;;;15.80;38.10;;;;;;5054940;28;20528;-37
2022/03/04 00:25:27;;;;;;;10.48;8.75;;;15.80;38.00;;;;;;5055505;28;20017;-38
2022/03/04 00:27:52;;;;;;;10.55;8.07;;;15.80;38.10;;;;;;5057802;28;20021;-39
2022/03/04 00:30:19;;;;;;;10.70;8.60;;;15.70;38.10;;;;;;5057370;28;20521;-37
2022/03/04 00:32:45;;;;;;;10.52;8.43;;;15.80;38.60;;;;;;5056800;28;20017;-38
2022/03/04 00:35:11;;;;;;;11.57;8.73;;;15.70;38.10;;;;;;5056377;28;20013;-39
2022/03/04 00:37:37;;;;;;;9.90;8.10;;;15.80;38.10;;;;;;5056233;28;20398;-37
2022/03/04 00:40:04;;;;;;;12.52;9.05;;;15.70;38.10;;;;;;5055087;28;20532;-38
2022/03/04 00:42:30;;;;;;;9.20;7.80;;;15.80;38.10;;;;;;5056227;28;20048;-37
2022/03/04 00:44:56;;;;;;;8.82;7.80;;;15.80;38.00;;;;;;5060029;28;20021;-41
2022/03/04 00:47:22;;;;;;;10.20;8.65;;;15.90;38.00;;;;;;5059333;28;20549;-38
2022/03/04 00:49:48;;;;;;;10.68;7.97;;;16.10;37.50;;;;;;5057992;28;20089;-38
2022/03/04 00:52:14;;;;;;;9.30;7.93;;;16.20;37.30;;;;;;5059908;28;20020;-40
2022/03/04 00:54:41;;;;;;;9.60;7.95;;;16.30;37.00;;;;;;5060567;28;20032;-40
2022/03/04 00:57:07;;;;;;;9.38;8.02;;;16.40;36.80;;;;;;5057978;28;20033;-38
2022/03/04 00:59:34;;;;;;;10.23;8.27;;;16.50;36.60;;;;;;5057644;28;20025;-39
2022/03/04 01:02:01;;;;;;;10.95;8.38;;;16.70;36.40;;;;;;5057890;28;20025;-39
2022/03/04 01:04:28;;;;;;;11.80;8.95;;;16.70;36.20;;;;;;5056431;28;20025;-39
2022/03/04 01:06:55;;;;;;;9.07;8.05;;;16.80;36.10;;;;;;5056630;28;20049;-39
2022/03/04 01:09:21;;;;;;;9.55;8.02;;;16.80;35.90;;;;;;5056204;28;20059;-37
2022/03/04 01:11:47;;;;;;;9.88;7.32;;;16.90;35.70;;;;;;5058416;28;20013;-37
2022/03/04 01:14:16;;;;;;;9.15;7.47;;;16.90;35.60;;;;;;5059969;28;20023;-42
2022/03/04 01:16:45;;;;;;;9.27;7.65;;;17.00;35.50;;;;;;5058303;28;20021;-38
2022/03/04 01:19:11;;;;;;;9.23;7.38;;;17.10;35.40;;;;;;5058987;28;20076;-37
2022/03/04 01:21:38;;;;;;;9.50;7.93;;;17.20;35.30;;;;;;5059381;28;20009;-38
2022/03/04 01:24:04;;;;;;;8.63;7.00;;;17.20;35.10;;;;;;5058953;28;20025;-37
2022/03/04 01:26:30;;;;;;;8.82;7.47;;;17.20;35.00;;;;;;5058174;28;20022;-38
2022/03/04 01:28:57;;;;;;;9.52;7.82;;;17.30;35.00;;;;;;5058363;28;20178;-37
2022/03/04 01:31:23;;;;;;;10.43;7.95;;;17.40;34.90;;;;;;5058272;28;20379;-39
2022/03/04 01:33:49;;;;;;;8.93;7.65;;;17.50;34.70;;;;;;5058050;28;20014;-38
2022/03/04 01:36:15;;;;;;;9.75;7.82;;;17.50;34.60;;;;;;5057971;28;20468;-40
2022/03/04 01:38:42;;;;;;;8.70;7.32;;;17.50;35.10;;;;;;5058157;28;20025;-39
2022/03/04 01:41:08;;;;;;;8.77;7.55;;;17.60;34.50;;;;;;5058961;28;20013;-40
2022/03/04 01:43:35;;;;;;;10.13;7.60;;;17.60;34.50;;;;;;5062455;28;20049;-38
2022/03/04 01:46:17;;;;;;;8.93;7.65;;;17.60;34.40;;;;;;5062206;28;20544;-39
2022/03/04 01:48:44;;;;;;;9.18;7.70;;;17.60;34.40;;;;;;5060867;28;20029;-37
2022/03/04 01:51:10;;;;;;;8.95;6.93;;;17.70;34.30;;;;;;5062750;28;20139;-38
2022/03/04 01:53:37;;;;;;;8.48;7.10;;;17.70;34.30;;;;;;5062368;28;20486;-38
2022/03/04 01:56:03;;;;;;;8.50;7.38;;;17.70;34.20;;;;;;5061676;28;20021;-37
2022/03/04 01:58:29;;;;;;;8.35;7.20;;;17.70;34.20;;;;;;5060278;28;20059;-37
2022/03/04 02:00:55;;;;;;;8.77;7.18;;;17.80;34.10;;;;;;5060423;28;20013;-37
2022/03/04 02:03:23;;;;;;;8.93;7.63;;;17.80;34.00;;;;;;5060537;28;20045;-38
2022/03/04 02:05:48;;;;;;;9.02;7.32;;;17.80;34.00;;;;;;5043516;28;20013;-37
2022/03/04 02:08:16;;;;;;;7.72;6.72;;;17.80;34.00;;;;;;5060659;28;20061;-41
2022/03/04 02:10:42;;;;;;;7.97;7.00;;;17.90;34.10;;;;;;5061430;28;20028;-37
2022/03/04 02:13:08;;;;;;;8.55;6.90;;;17.90;34.10;;;;;;5057033;28;20070;-37
2022/03/04 02:15:35;;;;;;;8.18;6.88;;;17.90;34.00;;;;;;5057395;28;20014;-36
2022/03/04 02:18:08;;;;;;;8.85;7.10;;;17.90;33.90;;;;;;5058739;28;20029;-40
2022/03/04 02:20:35;;;;;;;7.95;6.57;;;17.90;33.80;;;;;;5058285;28;20013;-39
2022/03/04 02:23:00;;;;;;;8.75;7.18;;;17.90;33.80;;;;;;5057855;28;20486;-38
2022/03/04 02:25:27;;;;;;;7.90;6.97;;;18.00;33.80;;;;;;5057424;28;20029;-37
2022/03/04 02:27:53;;;;;;;7.80;6.70;;;18.00;33.70;;;;;;5058359;28;20395;-39
2022/03/04 02:30:20;;;;;;;8.05;6.82;;;18.00;33.70;;;;;;5059487;28;20376;-41
2022/03/04 02:32:46;;;;;;;7.90;6.80;;;18.00;33.70;;;;;;5059370;28;20009;-41
2022/03/04 02:35:13;;;;;;;7.28;6.50;;;18.00;33.70;;;;;;5059739;28;20075;-39
2022/03/04 02:37:39;;;;;;;7.43;6.47;;;18.10;33.70;;;;;;5060056;28;20017;-38
2022/03/04 02:40:05;;;;;;;9.25;7.30;;;18.10;33.70;;;;;;5060032;28;20025;-45
2022/03/04 02:42:31;;;;;;;8.98;7.00;;;18.10;33.60;;;;;;5057580;28;20136;-38
2022/03/04 02:44:58;;;;;;;8.77;7.03;;;18.10;33.50;;;;;;5057152;28;20056;-37
2022/03/04 02:47:24;;;;;;;8.70;7.03;;;18.10;33.50;;;;;;5056556;28;20155;-37
2022/03/04 02:49:51;;;;;;;8.27;6.95;;;18.10;33.50;;;;;;5057615;28;20036;-37
2022/03/04 02:52:17;;;;;;;7.68;6.60;;;18.10;33.50;;;;;;5057602;28;20021;-37
2022/03/04 02:54:43;;;;;;;7.80;6.97;;;18.10;33.40;;;;;;5057096;28;20392;-37
2022/03/04 02:57:10;;;;;;;7.53;6.60;;;18.20;33.50;;;;;;5058784;28;20013;-38
2022/03/04 02:59:37;;;;;;;7.68;6.80;;;18.20;33.40;;;;;;5059833;28;20052;-38
2022/03/04 03:02:03;;;;;;;8.00;6.55;;;18.20;33.40;;;;;;5059807;28;20017;-38
2022/03/04 03:04:29;;;;;;;8.63;7.03;;;18.20;33.40;;;;;;5059713;28;20031;-41
2022/03/04 03:06:57;;;;;;;8.20;6.75;;;18.20;33.40;;;;;;5059073;28;20024;-38
2022/03/04 03:09:23;;;;;;;7.22;6.30;;;18.20;33.90;;;;;;5058330;28;20025;-37
2022/03/04 03:11:51;;;;;;;7.47;6.30;;;18.20;33.40;;;;;;5058213;28;20032;-38
2022/03/04 03:14:16;;;;;;;8.88;6.70;;;18.20;33.30;;;;;;5059166;28;20013;-37
2022/03/04 03:16:43;;;;;;;8.02;6.97;;;18.20;33.30;;;;;;5058121;28;20021;-38
2022/03/04 03:19:09;;;;;;;8.20;6.60;;;18.30;33.30;;;;;;5059367;28;20025;-38
2022/03/04 03:21:35;;;;;;;7.10;6.22;;;18.20;33.20;;;;;;5059791;28;20077;-43
2022/03/04 03:24:02;;;;;;;7.70;6.40;;;18.30;33.30;;;;;;5060635;28;20063;-39
2022/03/04 03:26:29;;;;;;;7.25;6.55;;;18.30;33.20;;;;;;5060292;28;20027;-37
2022/03/04 03:28:54;;;;;;;7.28;6.28;;;18.30;33.10;;;;;;5059378;28;20021;-38
2022/03/04 03:31:20;;;;;;;7.05;6.20;;;18.30;33.20;;;;;;5058562;28;20028;-38
2022/03/04 03:33:47;;;;;;;7.38;6.18;;;18.30;33.20;;;;;;5060156;28;20035;-38
2022/03/04 03:36:13;;;;;;;7.50;6.57;;;18.30;33.10;;;;;;5060187;28;20016;-42
2022/03/04 03:38:39;;;;;;;8.18;7.00;;;18.40;33.10;;;;;;5059824;28;20025;-37
2022/03/04 03:41:06;;;;;;;7.95;6.40;;;18.40;33.10;;;;;;5059410;28;20536;-39
2022/03/04 03:43:34;;;;;;;7.75;6.53;;;18.40;33.10;;;;;;5055364;28;20397;-37
2022/03/04 03:45:59;;;;;;;7.68;6.55;;;18.40;33.00;;;;;;5054149;28;20017;-39
2022/03/04 03:48:26;;;;;;;7.60;6.18;;;18.40;33.00;;;;;;5054983;28;20025;-37
2022/03/04 03:50:53;;;;;;;7.95;6.68;;;18.40;33.00;;;;;;5055352;28;20020;-37
2022/03/04 03:53:19;;;;;;;7.50;6.40;;;18.40;32.90;;;;;;5054955;28;20009;-37
2022/03/04 03:55:45;;;;;;;7.72;6.68;;;18.40;33.00;;;;;;5053428;28;20086;-37
2022/03/04 03:58:11;;;;;;;7.70;6.57;;;18.40;32.80;;;;;;5054828;28;20039;-38
2022/03/04 04:00:37;;;;;;;8.10;6.75;;;18.50;32.90;;;;;;5054480;28;20024;-37
2022/03/04 04:03:04;;;;;;;8.88;6.85;;;18.40;32.80;;;;;;5055555;28;20017;-37
2022/03/04 04:05:30;;;;;;;8.18;6.57;;;18.40;32.90;;;;;;5055366;28;20031;-37
2022/03/04 04:07:57;;;;;;;8.23;6.68;;;18.40;32.80;;;;;;5054577;28;20033;-37
2022/03/04 04:10:24;;;;;;;8.40;6.63;;;18.50;32.80;;;;;;5054011;28;20475;-37
2022/03/04 04:12:50;;;;;;;7.28;6.45;;;18.50;32.80;;;;;;5055246;28;20078;-37
2022/03/04 04:15:17;;;;;;;7.38;6.32;;;18.40;32.80;;;;;;5055092;28;20463;-38
2022/03/04 04:17:43;;;;;;;7.45;6.28;;;18.50;32.80;;;;;;5054280;28;20043;-37
2022/03/04 04:20:09;;;;;;;7.70;6.25;;;18.40;32.80;;;;;;5037365;28;20020;-38
2022/03/04 04:22:35;;;;;;;8.00;6.22;;;18.50;32.80;;;;;;5054825;28;20021;-37
2022/03/04 04:25:01;;;;;;;7.85;5.93;;;18.50;32.80;;;;;;5054552;28;20059;-37
2022/03/04 04:27:28;;;;;;;9.32;6.38;;;18.50;32.70;;;;;;5054453;28;20025;-37
2022/03/04 04:29:55;;;;;;;6.93;6.22;;;18.50;32.70;;;;;;5052794;28;20005;-39
2022/03/04 04:32:22;;;;;;;6.90;6.05;;;18.50;32.70;;;;;;5054131;28;20147;-37
2022/03/04 04:34:47;;;;;;;7.50;6.32;;;18.50;32.70;;;;;;5054187;28;20475;-42
2022/03/04 04:37:13;;;;;;;8.23;6.03;;;18.50;32.70;;;;;;5054521;28;20044;-37
2022/03/04 04:39:39;;;;;;;7.35;6.20;;;18.50;32.70;;;;;;5053147;28;20021;-37
2022/03/04 04:42:05;;;;;;;6.93;6.18;;;18.60;32.70;;;;;;5054555;28;20021;-38
2022/03/04 04:44:32;;;;;;;11.23;6.63;;;18.60;32.60;;;;;;5053043;28;20059;-37
2022/03/04 04:46:58;;;;;;;6.95;6.15;;;18.60;32.70;;;;;;5054330;28;20483;-42
2022/03/04 04:49:25;;;;;;;7.05;6.10;;;18.60;32.60;;;;;;5054320;28;20032;-37
2022/03/04 04:51:51;;;;;;;7.05;6.28;;;18.50;32.60;;;;;;5054000;28;20025;-38
2022/03/04 04:54:17;;;;;;;7.88;6.10;;;18.50;32.60;;;;;;5054170;28;20459;-38
2022/03/04 04:56:43;;;;;;;7.72;6.05;;;18.50;32.70;;;;;;5052422;28;20013;-36
2022/03/04 04:59:10;;;;;;;7.22;6.47;;;18.50;32.70;;;;;;5053217;28;20067;-37
2022/03/04 05:01:36;;;;;;;7.15;6.35;;;18.40;32.80;;;;;;5052011;28;20533;-36
2022/03/04 05:04:02;;;;;;;7.15;5.95;;;18.40;32.80;;;;;;5052184;28;20029;-38
2022/03/04 05:06:28;;;;;;;7.93;6.40;;;18.40;32.90;;;;;;5053268;28;20013;-38
2022/03/04 05:08:54;;;;;;;7.80;6.13;;;18.30;33.00;;;;;;5053159;28;20036;-38
2022/03/04 05:11:20;;;;;;;8.15;6.40;;;18.30;33.10;;;;;;5053918;28;20017;-39
2022/03/04 05:13:47;;;;;;;7.85;6.32;;;18.20;33.10;;;;;;5055313;28;20020;-41
2022/03/04 05:16:13;;;;;;;6.90;6.00;;;18.20;33.20;;;;;;5056303;28;20013;-38
2022/03/04 05:18:38;;;;;;;6.70;5.85;;;18.10;33.20;;;;;;5056726;28;20079;-40
2022/03/04 05:21:05;;;;;;;6.60;5.90;;;18.10;33.40;;;;;;5056298;28;20096;-39
2022/03/04 05:26:16;;;;;;;7.18;5.68;;;18.00;33.50;;;;;;5056027;28;20092;-37
2022/03/04 05:28:42;;;;;;;9.30;6.18;;;17.90;34.10;;;;;;5055007;28;20017;-38
2022/03/04 05:31:09;;;;;;;8.45;6.60;;;17.90;33.70;;;;;;5054837;28;20025;-37
2022/03/04 05:33:35;;;;;;;9.13;6.70;;;17.80;33.80;;;;;;5054098;28;20093;-37
2022/03/04 05:36:02;;;;;;;7.53;6.50;;;17.80;33.80;;;;;;5055267;28;20032;-37
2022/03/04 05:38:28;;;;;;;7.25;6.40;;;17.70;33.90;;;;;;5054573;28;20475;-38
2022/03/04 05:40:53;;;;;;;7.57;6.35;;;17.70;34.00;;;;;;5053289;28;20032;-37
2022/03/04 05:43:20;;;;;;;8.18;6.65;;;17.70;34.00;;;;;;5052969;28;20053;-37
2022/03/04 05:45:47;;;;;;;8.27;6.22;;;17.60;34.00;;;;;;5053076;28;20021;-37
2022/03/04 05:48:12;;;;;;;6.88;6.07;;;17.50;34.10;;;;;;5052462;28;20100;-37
2022/03/04 05:50:39;;;;;;;7.72;6.72;;;17.50;34.20;;;;;;5052660;28;20499;-38
2022/03/04 05:53:05;;;;;;;7.40;6.05;;;17.40;34.20;;;;;;5052882;28;20025;-37
2022/03/04 05:55:30;;;;;;;7.55;6.32;;;17.40;34.30;;;;;;5052698;28;20464;-37
2022/03/04 05:57:57;;;;;;;8.18;6.72;;;17.40;34.40;;;;;;5052254;28;20029;-37
2022/03/04 06:00:22;;;;;;;8.65;6.55;;;17.30;34.40;;;;;;5055526;28;20020;-37
2022/03/04 06:02:50;;;;;;;8.20;6.75;;;17.30;34.40;;;;;;5056372;28;20025;-38
2022/03/04 06:05:16;;;;;;;7.80;6.28;;;17.20;34.50;;;;;;5056279;28;20013;-37
2022/03/04 06:07:42;;;;;;;8.40;6.32;;;17.20;34.60;;;;;;5056347;28;20108;-39
2022/03/04 06:10:08;;;;;;;8.25;6.13;;;17.20;34.60;;;;;;5054770;28;20100;-37
2022/03/04 06:12:37;;;;;;;8.05;6.00;;;17.20;34.60;;;;;;5056281;28;20090;-37
2022/03/04 06:15:04;;;;;;;7.22;6.05;;;17.20;34.70;;;;;;5056097;28;20041;-37
2022/03/04 06:17:31;;;;;;;8.23;6.55;;;17.10;34.80;;;;;;5055918;28;20021;-37
2022/03/04 06:19:57;;;;;;;8.55;6.35;;;17.10;34.80;;;;;;5056078;28;20013;-37
2022/03/04 06:22:22;;;;;;;6.97;5.97;;;17.10;34.80;;;;;;5054551;28;20024;-37
2022/03/04 06:24:48;;;;;;;8.70;6.05;;;17.00;34.90;;;;;;5055727;28;20066;-37
2022/03/04 06:27:14;;;;;;;9.75;6.55;;;17.00;34.90;;;;;;5055914;28;20088;-37
2022/03/04 06:29:40;;;;;;;6.88;5.50;;;17.00;34.90;;;;;;5055710;28;20492;-37
2022/03/04 06:32:07;;;;;;;7.78;5.97;;;17.00;35.00;;;;;;5055205;28;20387;-38
2022/03/04 06:34:33;;;;;;;7.95;6.35;;;17.00;35.10;;;;;;5021455;28;20017;-37
2022/03/04 06:36:58;;;;;;;7.43;5.95;;;16.90;35.10;;;;;;5054564;28;20464;-37
2022/03/04 06:39:24;;;;;;;7.10;6.07;;;16.90;35.30;;;;;;5055530;28;20024;-37
2022/03/04 06:41:50;;;;;;;9.15;6.40;;;16.90;35.30;;;;;;5054252;28;20021;-37
2022/03/04 06:44:16;;;;;;;7.55;6.13;;;16.90;35.20;;;;;;5055238;28;20103;-37
2022/03/04 06:46:41;;;;;;;7.43;6.40;;;16.80;35.20;;;;;;5054394;28;20483;-37
2022/03/04 06:49:10;;;;;;;7.97;6.10;;;16.80;35.20;;;;;;5055616;28;20466;-37
2022/03/04 06:51:39;;;;;;;7.57;6.40;;;16.80;35.20;;;;;;5054178;28;20468;-37
2022/03/04 06:54:05;;;;;;;8.52;6.85;;;16.90;35.00;;;;;;5054548;28;20037;-37
2022/03/04 06:56:31;;;;;;;8.40;6.78;;;17.10;34.50;;;;;;5056283;28;20013;-39
2022/03/04 06:58:57;;;;;;;8.20;6.40;;;17.40;33.80;;;;;;5041083;28;20024;-39
2022/03/04 07:01:22;;;;;;;7.88;6.60;;;17.70;33.40;;;;;;5058424;28;20021;-42
2022/03/04 07:03:48;;;;;;;7.60;6.70;;;17.80;33.00;;;;;;5057473;28;20016;-41
2022/03/04 07:06:16;;;;;;;8.38;6.85;;;17.90;32.80;;;;;;5058537;28;20013;-39
2022/03/04 07:08:42;;;;;;;8.35;6.45;;;18.00;32.60;;;;;;5058622;28;20021;-37
2022/03/04 07:11:07;;;;;;;8.68;6.70;;;18.00;32.60;;;;;;5058530;28;20406;-38
2022/03/04 07:13:34;;;;;;;8.57;7.18;;;17.70;32.80;;;;;;5061071;28;20022;-42
2022/03/04 07:16:01;;;;;;;9.23;6.90;;;17.50;33.20;;;;;;5059969;28;20017;-39
2022/03/04 07:18:30;;;;;;;8.35;6.35;;;17.40;33.50;;;;;;5058751;28;20091;-40
2022/03/04 07:20:57;;;;;;;9.68;7.10;;;17.40;33.60;;;;;;5059081;28;20047;-37
2022/03/04 07:23:23;;;;;;;8.13;7.18;;;17.50;33.60;;;;;;5059227;28;20499;-41
2022/03/04 07:25:49;;;;;;;8.85;7.22;;;17.50;33.60;;;;;;5059074;28;20024;-38
2022/03/04 07:28:15;;;;;;;8.70;7.30;;;17.60;33.50;;;;;;5060864;28;20029;-39
2022/03/04 07:30:41;;;;;;;8.88;7.07;;;17.70;33.20;;;;;;5061900;28;20031;-41
2022/03/04 07:33:07;;;;;;;8.73;7.15;;;18.00;33.00;;;;;;5059795;28;20009;-38
2022/03/04 07:35:33;;;;;;;10.70;7.35;;;18.10;32.70;;;;;;5060915;28;20539;-44
2022/03/04 07:37:59;;;;;;;8.10;7.30;;;18.40;32.30;;;;;;5059646;28;20045;-38
2022/03/04 07:40:25;;;;;;;9.35;7.18;;;18.60;32.00;;;;;;5059744;28;20017;-43
2022/03/04 07:42:52;;;;;;;9.38;7.70;;;18.80;31.60;;;;;;5059101;28;20057;-37
2022/03/04 07:45:18;;;;;;;10.32;7.75;;;19.00;31.30;;;;;;5060114;28;20036;-38
2022/03/04 07:47:44;;;;;;;10.07;7.75;;;19.20;31.10;;;;;;5041645;28;20079;-42
2022/03/04 07:50:14;;;;;;;8.82;7.40;;;19.40;30.80;;;;;;5058738;28;20021;-39
2022/03/04 07:52:40;;;;;;;10.75;8.05;;;19.50;30.60;;;;;;5058366;28;20079;-42
2022/03/04 07:55:07;;;;;;;10.70;8.15;;;19.60;30.40;;;;;;5059861;28;20021;-39
2022/03/04 07:57:33;;;;;;;10.05;7.78;;;19.80;30.20;;;;;;5059635;28;20039;-39
2022/03/04 07:59:59;;;;;;;14.90;8.40;;;20.00;30.00;;;;;;5042005;28;20069;-40
2022/03/04 08:02:26;;;;;;;10.35;7.88;;;20.20;29.90;;;;;;5057701;28;20088;-38
2022/03/04 08:04:52;;;;;;;10.25;7.63;;;20.30;29.70;;;;;;5058467;28;20013;-38
2022/03/04 08:07:18;;;;;;;9.50;7.63;;;20.50;29.60;;;;;;5056924;28;20028;-38
2022/03/04 08:09:44;;;;;;;8.95;7.68;;;20.70;29.40;;;;;;5056455;28;20387;-37
2022/03/04 08:12:11;;;;;;;9.07;7.57;;;20.80;29.20;;;;;;5055485;28;20005;-39
2022/03/04 08:14:36;;;;;;;10.07;8.13;;;21.00;29.10;;;;;;5056139;28;20024;-38
2022/03/04 08:17:02;;;;;;;8.70;7.80;;;21.20;29.00;;;;;;5038373;28;20013;-40
2022/03/04 08:19:29;;;;;;;9.75;7.80;;;21.30;28.70;;;;;;5056756;28;20475;-41
2022/03/04 08:21:55;;;;;;;9.25;7.60;;;21.50;28.60;;;;;;5054824;28;20017;-40
2022/03/04 08:24:21;;;;;;;9.85;7.80;;;21.70;28.90;;;;;;5056462;28;20100;-43
2022/03/04 08:26:46;;;;;;;12.20;7.85;;;21.80;28.30;;;;;;5056731;28;20055;-41
2022/03/04 08:29:13;;;;;;;10.13;8.13;;;22.00;28.20;;;;;;5056556;28;20025;-41
2022/03/04 08:31:38;;;;;;;9.80;7.53;;;22.10;28.00;;;;;;5055518;28;20051;-40
2022/03/04 08:34:05;;;;;;;10.50;7.60;;;22.20;27.80;;;;;;5055723;28;20072;-40
2022/03/04 08:36:32;;;;;;;10.02;7.55;;;22.40;27.80;;;;;;5055585;28;20048;-42
2022/03/04 08:39:00;;;;;;;9.90;7.60;;;22.50;27.60;;;;;;5056806;28;20467;-41
2022/03/04 08:41:25;;;;;;;10.20;7.68;;;22.70;27.50;;;;;;5055396;28;20017;-40
2022/03/04 08:43:51;;;;;;;10.45;7.65;;;22.80;27.40;;;;;;5053431;28;20103;-42
2022/03/04 08:46:18;;;;;;;10.80;7.65;;;22.90;27.30;;;;;;5053300;28;20776;-38
2022/03/04 08:48:44;;;;;;;11.07;7.93;;;23.00;27.10;;;;;;5053534;28;20051;-38
2022/03/04 08:51:11;;;;;;;12.82;7.57;;;23.10;27.00;;;;;;5053253;28;20021;-38
2022/03/04 08:53:37;;;;;;;14.18;7.78;;;23.30;26.90;;;;;;5053515;28;20013;-36
2022/03/04 08:56:06;;;;;;;11.75;7.65;;;23.40;26.80;;;;;;5053358;28;20021;-37
2022/03/04 08:58:32;;;;;;;11.95;7.88;;;23.50;26.70;;;;;;5054057;28;20021;-38
2022/03/04 09:00:58;;;;;;;13.18;7.88;;;23.60;26.60;;;;;;5053700;28;20013;-38
2022/03/04 09:03:24;;;;;;;13.70;8.02;;;23.70;26.60;;;;;;5053377;28;20104;-37
2022/03/04 09:05:50;;;;;;;13.98;7.82;;;23.80;26.50;;;;;;5053408;28;20017;-37
2022/03/04 09:08:16;;;;;;;13.73;7.95;;;24.00;26.40;;;;;;5052252;28;20033;-37
2022/03/04 09:10:42;;;;;;;12.48;7.28;;;24.10;26.30;;;;;;5053617;28;20028;-37
2022/03/04 09:13:08;;;;;;;16.10;7.63;;;24.10;26.20;;;;;;5054486;28;20014;-38
2022/03/04 09:15:34;;;;;;;11.27;7.70;;;24.30;26.10;;;;;;5053924;28;20478;-37
2022/03/04 09:18:00;;;;;;;13.70;7.10;;;24.40;26.10;;;;;;5052829;28;20100;-37
2022/03/04 09:20:26;;;;;;;13.57;7.45;;;24.40;26.00;;;;;;5053578;28;20020;-37
2022/03/04 09:22:55;;;;;;;14.63;7.35;;;24.50;25.90;;;;;;5053940;28;20092;-38
2022/03/04 09:25:22;;;;;;;12.25;7.40;;;24.60;25.90;;;;;;5053435;28;20033;-38
2022/03/04 09:27:50;;;;;;;15.57;8.13;;;24.70;25.80;;;;;;5052884;28;20044;-37
2022/03/04 09:30:15;;;;;;;12.27;7.18;;;24.80;25.70;;;;;;5054647;28;20092;-37
2022/03/04 09:32:42;;;;;;;10.60;7.25;;;24.80;25.70;;;;;;5056195;28;20029;-38
2022/03/04 09:35:08;;;;;;;15.82;7.57;;;24.90;25.60;;;;;;5058105;28;20467;-38
2022/03/04 09:37:34;;;;;;;13.77;7.55;;;25.00;25.60;;;;;;5058643;28;20426;-38
2022/03/04 09:40:00;;;;;;;13.82;7.20;;;25.00;25.50;;;;;;5057039;28;20074;-38
2022/03/04 09:42:26;;;;;;;11.25;7.32;;;25.10;25.50;;;;;;5057029;28;20021;-38
2022/03/04 09:44:51;;;;;;;16.30;7.72;;;25.20;25.50;;;;;;5057023;28;20027;-37
2022/03/04 09:47:20;;;;;;;16.13;7.93;;;25.20;25.50;;;;;;5055919;28;20044;-42
2022/03/04 09:49:46;;;;;;;14.43;7.10;;;25.20;25.40;;;;;;5056792;28;20100;-37
2022/03/04 09:52:12;;;;;;;19.10;7.10;;;25.30;25.40;;;;;;5055944;28;20041;-37
2022/03/04 09:54:38;;;;;;;21.95;7.63;;;25.30;25.30;;;;;;5057518;28;20020;-39
2022/03/04 09:57:03;;;;;;;18.88;7.82;;;25.40;25.40;;;;;;5057452;28;20336;-38
2022/03/04 09:59:30;;;;;;;11.63;6.78;;;25.40;25.30;;;;;;5055038;28;20056;-38
2022/03/04 10:01:59;;;;;;;18.83;7.55;;;25.40;25.30;;;;;;5056510;28;20056;-38
2022/03/04 10:04:26;;;;;;;12.35;6.97;;;25.50;25.20;;;;;;5056234;28;20017;-38
2022/03/04 10:06:52;;;;;;;16.08;7.28;;;25.50;25.20;;;;;;5056313;28;20036;-39
2022/03/04 10:09:53;;;;;;;15.50;7.45;;;25.60;25.30;;;;;;5038944;28;20483;-39
2022/03/04 10:12:22;;;;;;;17.70;6.80;;;25.60;25.20;;;;;;5054073;28;20036;-38
2022/03/04 10:15:01;;;;;;;15.98;6.57;;;25.60;25.20;;;;;;5038058;28;20036;-38
2022/03/04 10:17:27;;;;;;;14.55;7.07;;;25.60;25.20;;;;;;5053906;28;20018;-38
2022/03/04 10:19:55;;;;;;;20.58;6.90;;;25.70;25.20;;;;;;5053808;28;20052;-39
2022/03/04 10:22:21;;;;;;;14.05;7.05;;;25.70;25.10;;;;;;5053696;28;20079;-39
2022/03/04 10:24:47;;;;;;;14.75;6.85;;;25.80;25.20;;;;;;5037305;28;20071;-40
2022/03/04 10:27:15;;;;;;;15.48;6.70;;;25.80;25.10;;;;;;5053691;28;20025;-40
2022/03/04 10:29:49;;;;;;;16.58;7.05;;;25.80;25.10;;;;;;5053411;28;20535;-41
2022/03/04 10:32:16;;;;;;;14.65;6.28;;;25.80;25.10;;;;;;5053387;28;20025;-39
2022/03/04 10:35:00;;;;;;;17.77;6.60;;;25.90;25.10;;;;;;5053613;28;20021;-39
2022/03/04 10:37:47;;;;;;;16.58;6.32;;;25.90;25.10;;;;;;5053391;28;20017;-39
2022/03/04 10:40:24;;;;;;;14.52;6.28;;;25.90;25.10;;;;;;5053202;28;20511;-39
2022/03/04 10:43:06;;;;;;;14.73;6.63;;;25.90;25.20;;;;;;5054284;28;20048;-47
2022/03/04 10:45:33;;;;;;;15.57;6.75;;;25.90;25.20;;;;;;5038924;28;20475;-39
2022/03/04 10:48:02;;;;;;;14.73;6.13;;;25.90;25.20;;;;;;5056988;28;20021;-39
2022/03/04 10:50:35;;;;;;;12.95;6.30;;;25.90;25.20;;;;;;5055337;28;20040;-38
2022/03/04 10:53:10;;;;;;;15.27;6.60;;;25.90;25.20;;;;;;5056540;28;20021;-39
2022/03/04 10:55:40;;;;;;;17.42;6.07;;;25.90;25.20;;;;;;5056096;28;20013;-47
2022/03/04 10:58:11;;;;;;;13.65;6.03;;;25.90;25.30;;;;;;5056762;28;20021;-39
2022/03/04 11:00:37;;;;;;;14.85;6.55;;;25.80;25.30;;;;;;5057693;28;20027;-39
2022/03/04 11:03:05;;;;;;;14.93;6.63;;;25.80;25.30;;;;;;5057519;28;20071;-39
2022/03/04 11:05:30;;;;;;;13.18;6.22;;;25.80;25.30;;;;;;5056645;28;20017;-40
2022/03/04 11:07:57;;;;;;;13.65;6.47;;;25.80;25.30;;;;;;5056593;28;20025;-38
2022/03/04 11:10:23;;;;;;;15.60;6.25;;;25.80;25.40;;;;;;5056700;28;20022;-38
2022/03/04 11:12:55;;;;;;;16.23;6.40;;;25.70;25.30;;;;;;5055717;28;20112;-39
2022/03/04 11:15:23;;;;;;;12.23;5.70;;;25.70;25.40;;;;;;5056154;28;20017;-39
2022/03/04 11:17:49;;;;;;;11.32;5.85;;;25.70;25.40;;;;;;5055793;28;20024;-38
2022/03/04 11:20:15;;;;;;;16.13;5.72;;;25.70;25.40;;;;;;5057168;28;20017;-39
2022/03/04 11:22:41;;;;;;;11.63;5.47;;;25.70;25.50;;;;;;5057009;28;20035;-38
2022/03/04 11:25:10;;;;;;;18.80;5.90;;;25.70;25.50;;;;;;5056458;28;20021;-38
2022/03/04 11:27:43;;;;;;;15.95;5.75;;;25.70;25.50;;;;;;5057382;28;20483;-41
2022/03/04 11:30:37;;;;;;;14.57;6.30;;;25.60;25.50;;;;;;5057903;28;20020;-40
2022/03/04 11:33:07;;;;;;;13.57;5.10;;;25.50;25.50;;;;;;5056936;28;20021;-39
2022/03/04 11:36:04;;;;;;;12.23;5.63;;;25.60;25.60;;;;;;5057609;28;20021;-43
2022/03/04 11:38:48;;;;;;;12.25;6.03;;;25.50;25.60;;;;;;5055218;28;20052;-40
2022/03/04 11:41:20;;;;;;;11.00;5.47;;;25.50;26.10;;;;;;5055221;28;20082;-39
2022/03/04 11:43:47;;;;;;;14.85;5.80;;;25.40;25.70;;;;;;5037572;28;20041;-41
2022/03/04 11:46:38;;;;;;;10.75;5.53;;;25.40;25.70;;;;;;5055099;28;20021;-42
2022/03/04 11:49:25;;;;;;;11.80;5.45;;;25.40;25.80;;;;;;5055198;28;20037;-39
2022/03/04 11:52:12;;;;;;;16.35;5.57;;;25.40;25.80;;;;;;5055244;28;20077;-40
2022/03/04 11:54:40;;;;;;;14.65;5.75;;;25.30;26.20;;;;;;5054493;28;20049;-39
2022/03/04 11:57:26;;;;;;;11.05;5.57;;;25.30;25.80;;;;;;5051127;28;20021;-39
2022/03/04 11:59:57;;;;;;;10.55;5.10;;;25.30;25.80;;;;;;5051487;28;20017;-39
2022/03/04 12:02:26;;;;;;;15.07;5.07;;;25.20;25.90;;;;;;5034844;28;20448;-39
2022/03/04 12:05:19;;;;;;;16.15;5.72;;;25.20;25.90;;;;;;5035476;28;20029;-39
2022/03/04 12:07:44;;;;;;;15.27;5.35;;;25.30;25.90;;;;;;5035764;28;20109;-38
2022/03/04 12:10:10;;;;;;;11.73;5.40;;;25.20;25.90;;;;;;5051912;28;20056;-38
2022/03/04 12:12:36;;;;;;;8.27;5.28;;;25.20;26.00;;;;;;5035265;28;20063;-38
2022/03/04 12:15:17;;;;;;;9.60;5.30;;;25.10;26.00;;;;;;5053252;28;20033;-37
2022/03/04 12:18:04;;;;;;;13.35;5.20;;;25.20;26.00;;;;;;5055250;28;20020;-39
2022/03/04 12:20:47;;;;;;;12.35;5.72;;;25.20;26.00;;;;;;5054400;28;20021;-37
2022/03/04 12:23:15;;;;;;;11.30;5.03;;;25.10;26.00;;;;;;5054636;28;20018;-37
2022/03/04 12:25:53;;;;;;;10.98;4.90;;;25.10;26.00;;;;;;5054905;28;20028;-38
2022/03/04 12:28:25;;;;;;;9.45;5.07;;;25.10;26.00;;;;;;5053895;28;20021;-38
2022/03/04 12:31:02;;;;;;;12.35;5.32;;;25.00;26.00;;;;;;5053555;28;20040;-38
2022/03/04 12:33:29;;;;;;;9.65;5.00;;;25.10;26.10;;;;;;5053419;28;20013;-37
2022/03/04 12:35:58;;;;;;;11.27;4.97;;;25.00;26.10;;;;;;5053262;28;20013;-38
2022/03/04 12:38:26;;;;;;;12.27;4.97;;;25.10;26.10;;;;;;5054065;28;20040;-38
2022/03/04 12:40:56;;;;;;;11.85;5.30;;;25.10;26.10;;;;;;5055481;28;20084;-38
2022/03/04 12:43:22;;;;;;;10.18;4.60;;;25.00;26.10;;;;;;5055227;28;20053;-38
2022/03/04 12:45:48;;;;;;;8.80;4.50;;;25.00;26.10;;;;;;5053486;28;20052;-39
2022/03/04 12:48:15;;;;;;;11.43;5.40;;;25.00;26.10;;;;;;5052863;28;20033;-39